sensor_id;sensor_type;location;lat;lon;timestamp;pressure;altitude;pressure_sealevel;temperature;humidity
13387;BME280;6763;48.524;9.044;2023-11-21T00:01:39;97193.34;;;12.40;63.22
13387;BME280;6763;48.524;9.044;2023-11-21T00:04:05;97186.41;;;12.40;63.24
13387;BME280;6763;48.524;9.044;2023-11-21T00:06:32;97185.69;;;12.37;63.31
13387;BME280;6763;48.524;9.044;2023-11-21T00:08:57;97190.06;;;12.35;63.33
13387;BME280;6763;48.524;9.044;2023-11-21T00:11:23;97191.00;;;12.32;62.91
13387;BME280;6763;48.524;9.044;2023-11-21T00:13:50;97190.97;;;12.34;63.86
13387;BME280;6763;48.524;9.044;2023-11-21T00:16:15;97190.97;;;12.34;63.30
13387;BME280;6763;48.524;9.044;2023-11-21T00:18:40;97192.50;;;12.39;63.25
13387;BME280;6763;48.524;9.044;2023-11-21T00:21:08;97184.75;;;12.38;63.76
13387;BME280;6763;48.524;9.044;2023-11-21T00:23:34;97178.63;;;12.40;63.47
13387;BME280;6763;48.524;9.044;2023-11-21T00:25:59;97181.97;;;12.44;63.80
13387;BME280;6763;48.524;9.044;2023-11-21T00:28:26;97186.09;;;12.50;63.42
13387;BME280;6763;48.524;9.044;2023-11-21T00:30:51;97195.41;;;12.55;63.54
13387;BME280;6763;48.524;9.044;2023-11-21T00:33:16;97192.75;;;12.57;63.43
13387;BME280;6763;48.524;9.044;2023-11-21T00:35:42;97198.69;;;12.60;63.52
13387;BME280;6763;48.524;9.044;2023-11-21T00:38:07;97175.59;;;12.53;63.40
13387;BME280;6763;48.524;9.044;2023-11-21T00:40:33;97189.19;;;12.59;63.18
13387;BME280;6763;48.524;9.044;2023-11-21T00:42:59;97185.63;;;12.62;63.12
13387;BME280;6763;48.524;9.044;2023-11-21T00:45:24;97183.03;;;12.62;63.69
13387;BME280;6763;48.524;9.044;2023-11-21T00:47:50;97182.16;;;12.63;63.10
13387;BME280;6763;48.524;9.044;2023-11-21T00:50:15;97198.16;;;12.74;63.20
13387;BME280;6763;48.524;9.044;2023-11-21T00:52:41;97198.13;;;12.75;63.46
13387;BME280;6763;48.524;9.044;2023-11-21T00:55:06;97193.78;;;12.76;62.84
13387;BME280;6763;48.524;9.044;2023-11-21T00:57:33;97181.97;;;12.67;62.47
13387;BME280;6763;48.524;9.044;2023-11-21T00:59:58;97199.94;;;12.73;63.09
13387;BME280;6763;48.524;9.044;2023-11-21T01:02:23;97195.75;;;12.69;63.25
13387;BME280;6763;48.524;9.044;2023-11-21T01:04:50;97184.69;;;12.64;63.21
13387;BME280;6763;48.524;9.044;2023-11-21T01:07:15;97186.38;;;12.65;63.25
13387;BME280;6763;48.524;9.044;2023-11-21T01:09:41;97141.44;;;12.40;63.37
13387;BME280;6763;48.524;9.044;2023-11-21T01:12:06;97178.81;;;12.59;63.51
13387;BME280;6763;48.524;9.044;2023-11-21T01:14:32;97184.75;;;12.63;63.24
13387;BME280;6763;48.524;9.044;2023-11-21T01:16:57;97177.06;;;12.60;63.65
13387;BME280;6763;48.524;9.044;2023-11-21T01:19:22;97178.91;;;12.56;63.68
13387;BME280;6763;48.524;9.044;2023-11-21T01:21:48;97178.19;;;12.53;63.13
13387;BME280;6763;48.524;9.044;2023-11-21T01:24:13;97176.75;;;12.44;63.55
13387;BME280;6763;48.524;9.044;2023-11-21T01:26:38;97183.63;;;12.45;63.27
13387;BME280;6763;48.524;9.044;2023-11-21T01:29:04;97176.13;;;12.37;63.33
13387;BME280;6763;48.524;9.044;2023-11-21T01:31:29;97173.69;;;12.33;63.45
13387;BME280;6763;48.524;9.044;2023-11-21T01:33:55;97186.75;;;12.31;64.08
13387;BME280;6763;48.524;9.044;2023-11-21T01:36:21;97182.53;;;12.27;63.59
13387;BME280;6763;48.524;9.044;2023-11-21T01:38:47;97176.75;;;12.19;63.63
13387;BME280;6763;48.524;9.044;2023-11-21T01:41:13;97188.75;;;12.23;64.00
13387;BME280;6763;48.524;9.044;2023-11-21T01:43:39;97174.94;;;12.23;64.04
13387;BME280;6763;48.524;9.044;2023-11-21T01:46:05;97181.81;;;12.24;64.30
13387;BME280;6763;48.524;9.044;2023-11-21T01:48:31;97165.50;;;12.20;63.90
13387;BME280;6763;48.524;9.044;2023-11-21T01:50:57;97161.34;;;12.16;64.28
13387;BME280;6763;48.524;9.044;2023-11-21T01:53:24;97166.34;;;12.21;64.31
13387;BME280;6763;48.524;9.044;2023-11-21T01:55:51;97176.63;;;12.24;64.41
13387;BME280;6763;48.524;9.044;2023-11-21T01:58:17;97174.31;;;12.16;64.13
13387;BME280;6763;48.524;9.044;2023-11-21T02:00:42;97169.91;;;12.18;64.49
13387;BME280;6763;48.524;9.044;2023-11-21T02:03:08;97176.91;;;12.16;64.37
13387;BME280;6763;48.524;9.044;2023-11-21T02:05:35;97175.38;;;12.09;64.17
13387;BME280;6763;48.524;9.044;2023-11-21T02:08:01;97165.28;;;12.02;64.19
13387;BME280;6763;48.524;9.044;2023-11-21T02:10:27;97164.50;;;12.00;64.04
13387;BME280;6763;48.524;9.044;2023-11-21T02:12:54;97166.19;;;12.01;64.38
13387;BME280;6763;48.524;9.044;2023-11-21T02:15:21;97165.34;;;12.00;64.45
13387;BME280;6763;48.524;9.044;2023-11-21T02:17:48;97172.28;;;12.00;64.72
13387;BME280;6763;48.524;9.044;2023-11-21T02:20:17;97170.47;;;12.02;64.65
13387;BME280;6763;48.524;9.044;2023-11-21T02:22:51;97164.44;;;12.01;64.67
13387;BME280;6763;48.524;9.044;2023-11-21T02:27:56;97163.53;;;12.02;64.41
13387;BME280;6763;48.524;9.044;2023-11-21T02:30:22;97164.44;;;12.01;64.58
13387;BME280;6763;48.524;9.044;2023-11-21T02:32:50;97175.47;;;12.08;64.91
13387;BME280;6763;48.524;9.044;2023-11-21T02:35:18;97172.88;;;12.08;64.32
13387;BME280;6763;48.524;9.044;2023-11-21T02:37:43;97166.06;;;12.04;64.40
13387;BME280;6763;48.524;9.044;2023-11-21T02:40:10;97171.22;;;12.05;64.62
13387;BME280;6763;48.524;9.044;2023-11-21T02:42:37;97163.47;;;12.04;64.63
13387;BME280;6763;48.524;9.044;2023-11-21T02:45:03;97166.88;;;12.06;64.26
13387;BME280;6763;48.524;9.044;2023-11-21T02:47:29;97161.63;;;12.07;64.41
13387;BME280;6763;48.524;9.044;2023-11-21T02:49:54;97163.06;;;12.16;64.49
13387;BME280;6763;48.524;9.044;2023-11-21T02:52:20;97165.56;;;12.19;64.56
13387;BME280;6763;48.524;9.044;2023-11-21T02:54:45;97165.44;;;12.22;64.48
13387;BME280;6763;48.524;9.044;2023-11-21T02:57:10;97157.66;;;12.22;64.10
13387;BME280;6763;48.524;9.044;2023-11-21T02:59:36;97152.44;;;12.23;64.63
13387;BME280;6763;48.524;9.044;2023-11-21T03:02:01;97151.63;;;12.21;64.28
13387;BME280;6763;48.524;9.044;2023-11-21T03:04:26;97146.59;;;12.17;64.29
13387;BME280;6763;48.524;9.044;2023-11-21T03:06:52;97152.63;;;12.17;64.83
13387;BME280;6763;48.524;9.044;2023-11-21T03:09:17;97146.72;;;12.14;64.66
13387;BME280;6763;48.524;9.044;2023-11-21T03:11:42;97135.69;;;12.07;64.49
13387;BME280;6763;48.524;9.044;2023-11-21T03:14:08;97148.38;;;12.16;64.43
13387;BME280;6763;48.524;9.044;2023-11-21T03:16:33;97142.25;;;12.17;64.72
13387;BME280;6763;48.524;9.044;2023-11-21T03:18:59;97145.59;;;12.21;64.33
13387;BME280;6763;48.524;9.044;2023-11-21T03:21:24;97145.63;;;12.19;64.71
13387;BME280;6763;48.524;9.044;2023-11-21T03:23:51;97152.44;;;12.23;64.05
13387;BME280;6763;48.524;9.044;2023-11-21T03:26:17;97154.16;;;12.23;64.59
13387;BME280;6763;48.524;9.044;2023-11-21T03:28:42;97148.41;;;12.15;63.93
13387;BME280;6763;48.524;9.044;2023-11-21T03:31:07;97152.72;;;12.14;64.57
13387;BME280;6763;48.524;9.044;2023-11-21T03:33:34;97156.34;;;12.10;64.40
13387;BME280;6763;48.524;9.044;2023-11-21T03:36:00;97149.53;;;12.08;64.46
13387;BME280;6763;48.524;9.044;2023-11-21T03:38:25;97158.97;;;12.09;64.11
13387;BME280;6763;48.524;9.044;2023-11-21T03:40:51;97159.94;;;12.06;64.61
13387;BME280;6763;48.524;9.044;2023-11-21T03:43:16;97165.03;;;12.09;64.39
13387;BME280;6763;48.524;9.044;2023-11-21T03:45:41;97170.16;;;12.11;64.52
13387;BME280;6763;48.524;9.044;2023-11-21T03:48:07;97175.19;;;12.15;64.11
13387;BME280;6763;48.524;9.044;2023-11-21T03:50:34;97174.31;;;12.16;64.41
13387;BME280;6763;48.524;9.044;2023-11-21T03:52:59;97174.13;;;12.21;64.30
13387;BME280;6763;48.524;9.044;2023-11-21T03:55:24;97166.19;;;12.25;64.60
13387;BME280;6763;48.524;9.044;2023-11-21T03:57:50;97172.22;;;12.26;64.25
13387;BME280;6763;48.524;9.044;2023-11-21T04:00:17;97163.59;;;12.25;64.18
13387;BME280;6763;48.524;9.044;2023-11-21T04:02:42;97172.06;;;12.30;64.24
13387;BME280;6763;48.524;9.044;2023-11-21T04:05:07;97158.50;;;12.22;64.34
13387;BME280;6763;48.524;9.044;2023-11-21T04:07:34;97146.50;;;12.20;64.16
13387;BME280;6763;48.524;9.044;2023-11-21T04:10:00;97168.47;;;12.34;64.59
13387;BME280;6763;48.524;9.044;2023-11-21T04:12:26;97164.25;;;12.32;63.97
13387;BME280;6763;48.524;9.044;2023-11-21T04:14:51;97164.16;;;12.33;63.73
13387;BME280;6763;48.524;9.044;2023-11-21T04:17:19;97165.13;;;12.31;64.10
13387;BME280;6763;48.524;9.044;2023-11-21T04:19:45;97172.03;;;12.32;64.10
13387;BME280;6763;48.524;9.044;2023-11-21T04:22:11;97169.47;;;12.30;63.97
13387;BME280;6763;48.524;9.044;2023-11-21T04:24:36;97170.25;;;12.32;64.30
13387;BME280;6763;48.524;9.044;2023-11-21T04:27:02;97174.56;;;12.33;64.27
13387;BME280;6763;48.524;9.044;2023-11-21T04:29:28;97159.25;;;12.26;64.51
13387;BME280;6763;48.524;9.044;2023-11-21T04:31:54;97170.41;;;12.28;64.18
13387;BME280;6763;48.524;9.044;2023-11-21T04:34:19;97160.38;;;12.19;63.76
13387;BME280;6763;48.524;9.044;2023-11-21T04:36:44;97180.03;;;12.24;64.02
13387;BME280;6763;48.524;9.044;2023-11-21T04:39:09;97181.75;;;12.25;64.19
13387;BME280;6763;48.524;9.044;2023-11-21T04:41:35;97187.81;;;12.24;64.37
13387;BME280;6763;48.524;9.044;2023-11-21T04:44:01;97185.31;;;12.23;63.93
13387;BME280;6763;48.524;9.044;2023-11-21T04:46:27;97176.03;;;12.16;64.12
13387;BME280;6763;48.524;9.044;2023-11-21T04:48:52;97170.06;;;12.14;64.11
13387;BME280;6763;48.524;9.044;2023-11-21T04:51:17;97193.19;;;12.20;64.29
13387;BME280;6763;48.524;9.044;2023-11-21T04:53:43;97186.31;;;12.19;64.53
13387;BME280;6763;48.524;9.044;2023-11-21T04:56:08;97182.19;;;12.13;64.25
13387;BME280;6763;48.524;9.044;2023-11-21T04:58:34;97189.75;;;12.19;63.92
13387;BME280;6763;48.524;9.044;2023-11-21T05:01:00;97198.44;;;12.18;64.30
13387;BME280;6763;48.524;9.044;2023-11-21T05:03:25;97209.69;;;12.17;64.26
13387;BME280;6763;48.524;9.044;2023-11-21T05:05:51;97202.00;;;12.16;64.53
13387;BME280;6763;48.524;9.044;2023-11-21T05:08:16;97185.88;;;12.06;64.47
13387;BME280;6763;48.524;9.044;2023-11-21T05:10:42;97195.09;;;12.15;64.13
13387;BME280;6763;48.524;9.044;2023-11-21T05:13:07;97207.91;;;12.19;63.70
13387;BME280;6763;48.524;9.044;2023-11-21T05:15:36;97204.47;;;12.19;64.07
13387;BME280;6763;48.524;9.044;2023-11-21T05:18:02;97208.03;;;12.16;63.76
13387;BME280;6763;48.524;9.044;2023-11-21T05:20:28;97198.53;;;12.15;64.15
13387;BME280;6763;48.524;9.044;2023-11-21T05:22:53;97215.13;;;12.11;63.54
13387;BME280;6763;48.524;9.044;2023-11-21T05:25:18;97212.63;;;12.08;64.12
13387;BME280;6763;48.524;9.044;2023-11-21T05:27:47;97208.38;;;12.06;64.10
13387;BME280;6763;48.524;9.044;2023-11-21T05:30:13;97208.41;;;12.04;64.38
13387;BME280;6763;48.524;9.044;2023-11-21T05:32:40;97221.28;;;12.07;64.35
13387;BME280;6763;48.524;9.044;2023-11-21T05:35:08;97223.03;;;12.07;64.20
13387;BME280;6763;48.524;9.044;2023-11-21T05:37:43;97225.53;;;12.10;64.47
13387;BME280;6763;48.524;9.044;2023-11-21T05:40:09;97228.13;;;12.10;64.08
13387;BME280;6763;48.524;9.044;2023-11-21T05:42:35;97234.19;;;12.09;64.22
13387;BME280;6763;48.524;9.044;2023-11-21T05:45:01;97222.25;;;12.05;63.86
13387;BME280;6763;48.524;9.044;2023-11-21T05:47:43;97219.91;;;11.97;64.16
13387;BME280;6763;48.524;9.044;2023-11-21T05:50:11;97227.00;;;11.92;64.26
13387;BME280;6763;48.524;9.044;2023-11-21T05:52:42;97236.47;;;11.93;64.04
13387;BME280;6763;48.524;9.044;2023-11-21T05:55:09;97228.72;;;11.92;64.38
13387;BME280;6763;48.524;9.044;2023-11-21T05:57:38;97213.59;;;11.79;64.21
13387;BME280;6763;48.524;9.044;2023-11-21T06:00:04;97238.22;;;11.93;64.45
13387;BME280;6763;48.524;9.044;2023-11-21T06:02:36;97232.19;;;11.92;64.21
13387;BME280;6763;48.524;9.044;2023-11-21T06:05:02;97239.16;;;11.90;64.39
13387;BME280;6763;48.524;9.044;2023-11-21T06:07:29;97223.75;;;11.86;64.03
13387;BME280;6763;48.524;9.044;2023-11-21T06:09:54;97228.13;;;11.83;64.34
13387;BME280;6763;48.524;9.044;2023-11-21T06:12:19;97228.34;;;11.77;63.43
13387;BME280;6763;48.524;9.044;2023-11-21T06:14:45;97239.75;;;11.72;63.52
13387;BME280;6763;48.524;9.044;2023-11-21T06:17:11;97230.56;;;11.62;63.93
13387;BME280;6763;48.524;9.044;2023-11-21T06:19:36;97245.25;;;11.61;63.65
13387;BME280;6763;48.524;9.044;2023-11-21T06:22:01;97244.72;;;11.50;63.72
13387;BME280;6763;48.524;9.044;2023-11-21T06:24:27;97247.22;;;11.53;63.66
13387;BME280;6763;48.524;9.044;2023-11-21T06:26:53;97253.34;;;11.51;63.98
13387;BME280;6763;48.524;9.044;2023-11-21T06:29:18;97259.50;;;11.47;63.93
13387;BME280;6763;48.524;9.044;2023-11-21T06:31:43;97250.78;;;11.49;64.35
13387;BME280;6763;48.524;9.044;2023-11-21T06:34:09;97267.88;;;11.56;64.65
13387;BME280;6763;48.524;9.044;2023-11-21T06:36:35;97271.19;;;11.60;64.69
13387;BME280;6763;48.524;9.044;2023-11-21T06:39:00;97274.50;;;11.65;64.89
13387;BME280;6763;48.524;9.044;2023-11-21T06:41:25;97278.66;;;11.72;64.51
13387;BME280;6763;48.524;9.044;2023-11-21T06:43:51;97276.84;;;11.74;64.60
13387;BME280;6763;48.524;9.044;2023-11-21T06:46:16;97272.44;;;11.77;64.69
13387;BME280;6763;48.524;9.044;2023-11-21T06:48:42;97263.00;;;11.75;64.63
13387;BME280;6763;48.524;9.044;2023-11-21T06:51:08;97285.88;;;11.89;64.62
13387;BME280;6763;48.524;9.044;2023-11-21T06:53:33;97286.63;;;11.92;64.71
13387;BME280;6763;48.524;9.044;2023-11-21T06:55:59;97283.25;;;11.90;64.90
13387;BME280;6763;48.524;9.044;2023-11-21T06:58:24;97293.53;;;11.93;64.50
13387;BME280;6763;48.524;9.044;2023-11-21T07:00:49;97294.31;;;11.95;64.50
13387;BME280;6763;48.524;9.044;2023-11-21T07:03:15;97300.25;;;11.99;64.85
13387;BME280;6763;48.524;9.044;2023-11-21T07:05:40;97301.06;;;12.01;64.38
13387;BME280;6763;48.524;9.044;2023-11-21T07:08:06;97306.13;;;12.04;64.48
13387;BME280;6763;48.524;9.044;2023-11-21T07:10:32;97300.06;;;12.05;64.56
13387;BME280;6763;48.524;9.044;2023-11-21T07:12:58;97303.34;;;12.10;64.38
13387;BME280;6763;48.524;9.044;2023-11-21T07:15:23;97310.25;;;12.11;64.40
13387;BME280;6763;48.524;9.044;2023-11-21T07:17:51;97306.69;;;12.13;64.55
13387;BME280;6763;48.524;9.044;2023-11-21T07:20:17;97310.00;;;12.18;64.64
13387;BME280;6763;48.524;9.044;2023-11-21T07:22:42;97312.34;;;12.26;64.93
13387;BME280;6763;48.524;9.044;2023-11-21T07:25:08;97304.50;;;12.27;64.88
13387;BME280;6763;48.524;9.044;2023-11-21T07:27:34;97302.66;;;12.31;64.46
13387;BME280;6763;48.524;9.044;2023-11-21T07:30:01;97289.84;;;12.26;64.76
13387;BME280;6763;48.524;9.044;2023-11-21T07:32:30;97305.84;;;12.39;64.62
13387;BME280;6763;48.524;9.044;2023-11-21T07:34:55;97312.69;;;12.41;64.52
13387;BME280;6763;48.524;9.044;2023-11-21T07:37:22;97311.63;;;12.47;64.48
13387;BME280;6763;48.524;9.044;2023-11-21T07:39:48;97318.31;;;12.54;64.47
13387;BME280;6763;48.524;9.044;2023-11-21T07:42:13;97321.66;;;12.58;64.32
13387;BME280;6763;48.524;9.044;2023-11-21T07:44:38;97318.31;;;12.54;64.31
13387;BME280;6763;48.524;9.044;2023-11-21T07:47:04;97324.25;;;12.58;64.72
13387;BME280;6763;48.524;9.044;2023-11-21T07:49:29;97314.66;;;12.60;64.33
13387;BME280;6763;48.524;9.044;2023-11-21T07:51:55;97324.09;;;12.62;64.80
13387;BME280;6763;48.524;9.044;2023-11-21T07:54:21;97320.69;;;12.60;64.74
13387;BME280;6763;48.524;9.044;2023-11-21T07:56:46;97322.34;;;12.63;64.32
13387;BME280;6763;48.524;9.044;2023-11-21T07:59:12;97334.31;;;12.67;64.16
13387;BME280;6763;48.524;9.044;2023-11-21T08:01:39;97336.91;;;12.67;64.59
13387;BME280;6763;48.524;9.044;2023-11-21T08:04:05;97330.03;;;12.66;64.21
13387;BME280;6763;48.524;9.044;2023-11-21T08:06:32;97328.81;;;12.76;64.52
13387;BME280;6763;48.524;9.044;2023-11-21T08:08:58;97332.13;;;12.79;64.12
13387;BME280;6763;48.524;9.044;2023-11-21T08:11:23;97332.00;;;12.84;63.97
13387;BME280;6763;48.524;9.044;2023-11-21T08:13:49;97339.53;;;12.91;64.30
13387;BME280;6763;48.524;9.044;2023-11-21T08:16:14;97341.97;;;12.94;63.75
13387;BME280;6763;48.524;9.044;2023-11-21T08:18:41;97331.72;;;12.91;63.83
13387;BME280;6763;48.524;9.044;2023-11-21T08:21:06;97346.28;;;12.95;63.82
13387;BME280;6763;48.524;9.044;2023-11-21T08:23:33;97335.22;;;12.90;63.89
13387;BME280;6763;48.524;9.044;2023-11-21T08:25:59;97344.72;;;12.91;63.83
13387;BME280;6763;48.524;9.044;2023-11-21T08:28:24;97335.41;;;12.84;63.65
13387;BME280;6763;48.524;9.044;2023-11-21T08:30:51;97330.28;;;12.83;63.70
13387;BME280;6763;48.524;9.044;2023-11-21T08:33:17;97341.25;;;12.91;63.96
13387;BME280;6763;48.524;9.044;2023-11-21T08:35:44;97352.38;;;12.94;64.10
13387;BME280;6763;48.524;9.044;2023-11-21T08:38:11;97355.78;;;12.96;63.68
13387;BME280;6763;48.524;9.044;2023-11-21T08:40:37;97365.06;;;13.03;63.91
13387;BME280;6763;48.524;9.044;2023-11-21T08:43:02;97358.91;;;13.06;63.54
13387;BME280;6763;48.524;9.044;2023-11-21T08:45:30;97339.19;;;13.00;63.34
13387;BME280;6763;48.524;9.044;2023-11-21T08:47:55;97363.75;;;13.17;62.76
13387;BME280;6763;48.524;9.044;2023-11-21T08:50:21;97354.25;;;13.16;62.93
13387;BME280;6763;48.524;9.044;2023-11-21T08:52:47;97370.38;;;13.25;63.13
13387;BME280;6763;48.524;9.044;2023-11-21T08:55:13;97357.16;;;13.31;63.12
13387;BME280;6763;48.524;9.044;2023-11-21T08:57:39;97371.38;;;13.46;62.87
13387;BME280;6763;48.524;9.044;2023-11-21T09:00:08;97364.13;;;13.54;62.80
13387;BME280;6763;48.524;9.044;2023-11-21T09:02:41;97357.13;;;13.56;62.73
13387;BME280;6763;48.524;9.044;2023-11-21T09:05:10;97368.78;;;13.67;62.34
13387;BME280;6763;48.524;9.044;2023-11-21T09:07:37;97372.91;;;13.73;62.12
13387;BME280;6763;48.524;9.044;2023-11-21T09:10:04;97384.56;;;13.86;62.18
13387;BME280;6763;48.524;9.044;2023-11-21T09:12:33;97359.41;;;13.87;61.91
13387;BME280;6763;48.524;9.044;2023-11-21T09:15:03;97357.91;;;14.03;61.48
13387;BME280;6763;48.524;9.044;2023-11-21T09:17:29;97376.91;;;14.26;61.38
13387;BME280;6763;48.524;9.044;2023-11-21T09:19:55;97376.66;;;14.34;61.22
13387;BME280;6763;48.524;9.044;2023-11-21T09:22:22;97374.63;;;14.41;61.26
13387;BME280;6763;48.524;9.044;2023-11-21T09:24:50;97382.13;;;14.48;60.99
13387;BME280;6763;48.524;9.044;2023-11-21T09:27:15;97376.34;;;14.62;60.89
13387;BME280;6763;48.524;9.044;2023-11-21T09:29:42;97377.09;;;14.85;60.54
13387;BME280;6763;48.524;9.044;2023-11-21T09:32:08;97364.59;;;15.14;59.83
13387;BME280;6763;48.524;9.044;2023-11-21T09:34:38;97377.22;;;15.62;58.57
13387;BME280;6763;48.524;9.044;2023-11-21T09:37:04;97356.72;;;15.91;57.74
13387;BME280;6763;48.524;9.044;2023-11-21T09:39:31;97377.09;;;16.21;56.42
13387;BME280;6763;48.524;9.044;2023-11-21T09:42:03;97376.97;;;16.24;56.56
13387;BME280;6763;48.524;9.044;2023-11-21T09:44:45;97385.22;;;16.14;56.41
13387;BME280;6763;48.524;9.044;2023-11-21T09:47:14;97371.41;;;15.94;56.23
13387;BME280;6763;48.524;9.044;2023-11-21T09:49:43;97378.00;;;15.82;55.71
13387;BME280;6763;48.524;9.044;2023-11-21T09:52:18;97377.91;;;15.67;55.67
13387;BME280;6763;48.524;9.044;2023-11-21T09:54:49;97378.94;;;15.42;55.16
13387;BME280;6763;48.524;9.044;2023-11-21T09:57:15;97398.75;;;15.48;55.15
13387;BME280;6763;48.524;9.044;2023-11-21T09:59:41;97382.75;;;15.35;54.92
13387;BME280;6763;48.524;9.044;2023-11-21T10:02:08;97397.59;;;15.33;54.43
13387;BME280;6763;48.524;9.044;2023-11-21T10:04:38;97367.56;;;15.05;54.31
13387;BME280;6763;48.524;9.044;2023-11-21T10:07:04;97412.94;;;15.21;53.76
13387;BME280;6763;48.524;9.044;2023-11-21T10:09:34;97413.22;;;15.15;54.13
13387;BME280;6763;48.524;9.044;2023-11-21T10:12:00;97378.16;;;15.02;53.92
13387;BME280;6763;48.524;9.044;2023-11-21T10:14:28;97400.88;;;15.18;53.64
13387;BME280;6763;48.524;9.044;2023-11-21T10:16:55;97347.00;;;14.99;53.25
13387;BME280;6763;48.524;9.044;2023-11-21T10:19:22;97409.31;;;15.43;52.78
13387;BME280;6763;48.524;9.044;2023-11-21T10:21:49;97405.38;;;15.55;52.36
13387;BME280;6763;48.524;9.044;2023-11-21T10:24:15;97361.41;;;15.46;52.49
13387;BME280;6763;48.524;9.044;2023-11-21T10:26:41;97330.53;;;15.37;51.98
13387;BME280;6763;48.524;9.044;2023-11-21T10:29:07;97354.28;;;15.51;51.99
13387;BME280;6763;48.524;9.044;2023-11-21T10:31:33;97400.69;;;15.82;52.01
13387;BME280;6763;48.524;9.044;2023-11-21T10:36:38;97361.69;;;15.40;51.76
13387;BME280;6763;48.524;9.044;2023-11-21T10:39:03;97407.22;;;15.53;52.20
13387;BME280;6763;48.524;9.044;2023-11-21T10:41:29;97384.97;;;15.24;52.12
13387;BME280;6763;48.524;9.044;2023-11-21T10:43:55;97390.69;;;15.12;52.23
13387;BME280;6763;48.524;9.044;2023-11-21T10:46:21;97419.78;;;15.03;52.67
13387;BME280;6763;48.524;9.044;2023-11-21T10:48:52;97333.16;;;14.36;53.07
13387;BME280;6763;48.524;9.044;2023-11-21T10:51:20;97397.41;;;14.57;53.18
13387;BME280;6763;48.524;9.044;2023-11-21T10:53:45;97396.69;;;14.30;53.94
13387;BME280;6763;48.524;9.044;2023-11-21T10:56:13;97404.66;;;14.04;54.35
13387;BME280;6763;48.524;9.044;2023-11-21T10:58:43;97408.38;;;13.76;56.14
13387;BME280;6763;48.524;9.044;2023-11-21T11:01:09;97407.00;;;13.65;56.81
13387;BME280;6763;48.524;9.044;2023-11-21T11:03:37;97414.31;;;13.56;57.64
13387;BME280;6763;48.524;9.044;2023-11-21T11:06:04;97403.56;;;13.42;57.77
13387;BME280;6763;48.524;9.044;2023-11-21T11:08:33;97377.38;;;13.23;58.75
13387;BME280;6763;48.524;9.044;2023-11-21T11:10:59;97416.44;;;13.45;58.28
13387;BME280;6763;48.524;9.044;2023-11-21T11:13:25;97350.25;;;13.05;58.24
13387;BME280;6763;48.524;9.044;2023-11-21T11:15:51;97423.88;;;13.55;58.55
13387;BME280;6763;48.524;9.044;2023-11-21T11:18:21;97422.00;;;13.59;58.85
13387;BME280;6763;48.524;9.044;2023-11-21T11:20:49;97395.84;;;13.39;58.92
13387;BME280;6763;48.524;9.044;2023-11-21T11:23:37;97403.72;;;13.37;58.56
13387;BME280;6763;48.524;9.044;2023-11-21T11:31:37;97418.25;;;13.43;59.88
13387;BME280;6763;48.524;9.044;2023-11-21T11:34:23;97390.31;;;13.25;59.81
13387;BME280;6763;48.524;9.044;2023-11-21T11:37:00;97367.34;;;13.13;59.75
13387;BME280;6763;48.524;9.044;2023-11-21T11:39:38;97428.41;;;13.49;60.04
13387;BME280;6763;48.524;9.044;2023-11-21T11:42:08;97421.47;;;13.49;60.24
13387;BME280;6763;48.524;9.044;2023-11-21T11:47:27;97408.47;;;13.49;60.07
13387;BME280;6763;48.524;9.044;2023-11-21T11:50:07;97434.72;;;13.66;59.97
13387;BME280;6763;48.524;9.044;2023-11-21T11:55:10;97435.13;;;13.79;59.80
13387;BME280;6763;48.524;9.044;2023-11-21T11:57:35;97417.69;;;13.81;60.04
13387;BME280;6763;48.524;9.044;2023-11-21T12:03:07;97423.78;;;14.03;59.55
13387;BME280;6763;48.524;9.044;2023-11-21T12:05:33;97428.31;;;13.98;59.26
13387;BME280;6763;48.524;9.044;2023-11-21T12:08:05;97415.00;;;13.84;59.80
13387;BME280;6763;48.524;9.044;2023-11-21T12:10:33;97434.00;;;13.86;59.59
13387;BME280;6763;48.524;9.044;2023-11-21T12:15:28;97427.16;;;13.84;60.06
13387;BME280;6763;48.524;9.044;2023-11-21T12:17:56;97430.50;;;13.87;60.19
13387;BME280;6763;48.524;9.044;2023-11-21T12:20:23;97418.75;;;13.99;59.90
13387;BME280;6763;48.524;9.044;2023-11-21T12:22:53;97429.25;;;14.19;59.43
13387;BME280;6763;48.524;9.044;2023-11-21T12:25:24;97411.97;;;14.18;59.63
13387;BME280;6763;48.524;9.044;2023-11-21T12:27:53;97365.41;;;14.10;59.88
13387;BME280;6763;48.524;9.044;2023-11-21T12:30:20;97406.22;;;14.53;59.24
13387;BME280;6763;48.524;9.044;2023-11-21T12:32:51;97399.28;;;14.74;59.26
13387;BME280;6763;48.524;9.044;2023-11-21T12:35:21;97429.75;;;15.14;58.97
13387;BME280;6763;48.524;9.044;2023-11-21T12:37:47;97428.31;;;15.27;58.50
13387;BME280;6763;48.524;9.044;2023-11-21T12:40:14;97434.91;;;15.35;58.33
13387;BME280;6763;48.524;9.044;2023-11-21T12:42:53;97436.34;;;15.22;58.24
13387;BME280;6763;48.524;9.044;2023-11-21T12:45:21;97410.97;;;14.85;58.50
13387;BME280;6763;48.524;9.044;2023-11-21T12:47:48;97428.59;;;14.79;58.54
13387;BME280;6763;48.524;9.044;2023-11-21T12:50:15;97408.25;;;14.47;58.84
13387;BME280;6763;48.524;9.044;2023-11-21T12:52:47;97379.63;;;14.23;58.90
13387;BME280;6763;48.524;9.044;2023-11-21T12:55:22;97388.22;;;14.25;59.22
13387;BME280;6763;48.524;9.044;2023-11-21T12:57:53;97447.09;;;14.51;58.85
13387;BME280;6763;48.524;9.044;2023-11-21T13:00:34;97439.13;;;14.34;58.87
13387;BME280;6763;48.524;9.044;2023-11-21T13:03:03;97443.22;;;14.16;59.49
13387;BME280;6763;48.524;9.044;2023-11-21T13:05:29;97456.31;;;14.15;59.93
13387;BME280;6763;48.524;9.044;2023-11-21T13:08:01;97448.63;;;14.12;60.27
13387;BME280;6763;48.524;9.044;2023-11-21T13:10:33;97442.63;;;14.10;60.19
13387;BME280;6763;48.524;9.044;2023-11-21T13:13:02;97441.75;;;14.11;60.15
13387;BME280;6763;48.524;9.044;2023-11-21T13:15:30;97446.56;;;14.20;60.39
13387;BME280;6763;48.524;9.044;2023-11-21T13:17:57;97449.19;;;14.20;60.27
13387;BME280;6763;48.524;9.044;2023-11-21T13:20:26;97415.88;;;14.06;60.22
13387;BME280;6763;48.524;9.044;2023-11-21T13:22:56;97439.25;;;14.31;60.21
13387;BME280;6763;48.524;9.044;2023-11-21T13:25:27;97438.19;;;14.35;59.82
13387;BME280;6763;48.524;9.044;2023-11-21T13:27:56;97460.59;;;14.61;60.20
13387;BME280;6763;48.524;9.044;2023-11-21T13:30:23;97452.31;;;14.73;59.82